Time;durP1;ratioP1;P1;durP2;ratioP2;P2;SDS_P1;SDS_P2;PMS_P1;PMS_P2;Temp;Humidity;BMP_temperature;BMP_pressure;BME280_temperature;BME280_humidity;BME280_pressure;Samples;Min_cycle;Max_cycle;Signal;HPM_P1;HPM_P2
2022/04/22 00:02:01;;;;;;;;;;;;;;;10.79;51.18;100164.39;124266;1099;104178;-76
2022/04/22 00:04:33;;;;;;;;;;;;;;;10.78;51.92;100166.97;124257;1099;104175;-76
2022/04/22 00:07:04;;;;;;;;;;;;;;;10.77;51.82;100166.09;124279;1099;104159;-76
2022/04/22 00:09:35;;;;;;;;;;;;;;;10.77;51.77;100160.84;124276;1099;103332;-76
2022/04/22 00:12:07;;;;;;;;;;;;;;;10.76;51.85;100163.42;124304;1099;102165;-76
2022/04/22 00:14:39;;;;;;;;;;;;;;;10.73;51.94;100164.21;124307;1099;104205;-76
2022/04/22 00:17:09;;;;;;;;;;;;;;;10.73;51.82;100164.21;124268;1099;104208;-76
2022/04/22 00:19:42;;;;;;;;;;;;;;;10.69;52.38;100170.23;124315;1103;104114;-76
2022/04/22 00:22:14;;;;;;;;;;;;;;;10.66;52.12;100161.36;124335;1099;104153;-77
2022/04/22 00:24:46;;;;;;;;;;;;;;;10.64;52.36;100156.06;124331;1098;103322;-78
2022/04/22 00:27:16;;;;;;;;;;;;;;;10.63;53.41;100153.39;124321;1099;104655;-78
2022/04/22 00:29:46;;;;;;;;;;;;;;;10.58;53.08;100156.79;124319;1099;102766;-78
2022/04/22 00:32:20;;;;;;;;;;;;;;;10.56;52.59;100168.95;124266;1099;104318;-77
2022/04/22 00:34:51;;;;;;;;;;;;;;;10.54;52.40;100169.77;124328;1099;104230;-77
2022/04/22 00:37:22;;;;;;;;;;;;;;;10.52;52.59;100163.59;124328;1099;104385;-76
2022/04/22 00:39:53;;;;;;;;;;;;;;;10.53;53.09;100170.59;124314;1099;102922;-76
2022/04/22 00:42:27;;;;;;;;;;;;;;;10.47;53.86;100162.55;124233;1098;104210;-75
2022/04/22 00:44:59;;;;;;;;;;;;;;;10.42;52.73;100159.78;124315;1102;102881;-75
2022/04/22 00:47:30;;;;;;;;;;;;;;;10.41;53.33;100158.90;124395;1099;102819;-75
2022/04/22 00:50:02;;;;;;;;;;;;;;;10.42;53.43;100163.31;124305;1098;104230;-76
2022/04/22 00:52:32;;;;;;;;;;;;;;;10.41;53.51;100158.90;124279;1099;104274;-75
2022/04/22 00:55:04;;;;;;;;;;;;;;;10.42;52.92;100157.16;124285;1099;104579;-76
2022/04/22 00:57:35;;;;;;;;;;;;;;;10.41;53.69;100152.77;124324;1102;104349;-75
2022/04/22 01:00:05;;;;;;;;;;;;;;;10.36;53.81;100157.88;124306;1099;104170;-76
2022/04/22 01:02:35;;;;;;;;;;;;;;;10.29;54.42;100168.97;124249;1099;105469;-76
2022/04/22 01:10:58;;;;;;;;;;;;;;;10.11;53.63;100178.87;124253;1102;104277;-76
2022/04/22 01:13:27;;;;;;;;;;;;;;;10.05;54.31;100184.79;124161;1102;104258;-76
2022/04/22 01:15:57;;;;;;;;;;;;;;;10.01;54.60;100182.93;124206;1099;104156;-76
2022/04/22 01:18:27;;;;;;;;;;;;;;;10.00;53.91;100181.14;124348;1099;101901;-76
2022/04/22 01:21:02;;;;;;;;;;;;;;;10.01;54.07;100177.69;124299;1099;102756;-76
2022/04/22 01:23:34;;;;;;;;;;;;;;;10.00;54.37;100182.05;124221;1102;104393;-76
2022/04/22 01:26:04;;;;;;;;;;;;;;;9.98;54.54;100181.09;124810;1099;101896;-76
2022/04/22 01:28:34;;;;;;;;;;;;;;;9.97;54.73;100186.28;124767;1099;102222;-75
2022/04/22 01:31:04;;;;;;;;;;;;;;;9.96;54.51;100184.52;124827;1099;104162;-76
2022/04/22 01:33:34;;;;;;;;;;;;;;;9.96;54.40;100187.14;124780;1099;104160;-76
2022/04/22 01:36:07;;;;;;;;;;;;;;;9.96;54.91;100193.27;124793;1099;102768;-76
2022/04/22 01:38:38;;;;;;;;;;;;;;;9.98;54.32;100194.19;124884;1099;104185;-75
2022/04/22 01:41:08;;;;;;;;;;;;;;;9.97;54.47;100189.81;124334;1099;104249;-76
2022/04/22 01:43:40;;;;;;;;;;;;;;;9.99;54.43;100188.12;124390;1099;104200;-76
2022/04/22 01:46:10;;;;;;;;;;;;;;;10.00;55.15;100197.78;124831;1099;104213;-76
2022/04/22 01:48:41;;;;;;;;;;;;;;;9.98;55.04;100193.31;124384;1100;101853;-76
2022/04/22 01:51:13;;;;;;;;;;;;;;;9.98;54.67;100191.57;124894;1099;104220;-76
2022/04/22 01:53:44;;;;;;;;;;;;;;;9.99;54.51;100188.12;124329;1102;102413;-76
2022/04/22 01:56:15;;;;;;;;;;;;;;;9.99;54.49;100192.48;124335;1099;104204;-76
2022/04/22 01:58:46;;;;;;;;;;;;;;;10.00;54.61;100197.78;124293;1099;104201;-76
2022/04/22 02:01:16;;;;;;;;;;;;;;;10.00;54.74;100203.02;124285;1099;104629;-76
2022/04/22 02:03:47;;;;;;;;;;;;;;;9.99;54.54;100193.36;124336;1099;102910;-76
2022/04/22 02:06:18;;;;;;;;;;;;;;;9.98;54.52;100199.44;124310;1099;104178;-76
2022/04/22 02:08:48;;;;;;;;;;;;;;;9.97;54.90;100191.52;124367;1099;102874;-76
2022/04/22 02:11:18;;;;;;;;;;;;;;;9.96;54.72;100192.38;124247;1099;104182;-75
2022/04/22 02:13:48;;;;;;;;;;;;;;;9.96;55.04;100197.63;124345;1099;104332;-76
2022/04/22 02:16:18;;;;;;;;;;;;;;;9.95;54.42;100199.33;124318;1099;104172;-76
2022/04/22 02:18:51;;;;;;;;;;;;;;;9.90;54.35;100190.44;124342;1099;102794;-76
2022/04/22 02:21:25;;;;;;;;;;;;;;;9.94;54.15;100192.33;124385;1099;104173;-76
2022/04/22 02:23:56;;;;;;;;;;;;;;;9.92;54.33;100191.37;124311;1099;102260;-76
2022/04/22 02:26:27;;;;;;;;;;;;;;;9.90;54.28;100186.08;124371;1099;104274;-76
2022/04/22 02:28:58;;;;;;;;;;;;;;;9.86;54.34;100194.70;124231;1099;104322;-76
2022/04/22 02:31:28;;;;;;;;;;;;;;;9.83;54.71;100201.54;124333;1099;102164;-75
2022/04/22 02:33:58;;;;;;;;;;;;;;;9.76;55.09;100204.81;124281;1099;105421;-76
2022/04/22 02:36:30;;;;;;;;;;;;;;;9.70;54.98;100208.10;124260;1099;104326;-76
2022/04/22 02:39:01;;;;;;;;;;;;;;;9.62;56.27;100213.07;124309;1099;102797;-75
2022/04/22 02:47:09;;;;;;;;;;;;;;;9.34;56.03;100224.30;124334;1099;102794;-75
2022/04/22 02:49:43;;;;;;;;;;;;;;;9.27;56.05;100217.96;124358;1099;104053;-76
2022/04/22 02:52:13;;;;;;;;;;;;;;;9.23;55.49;100215.17;124343;1099;104243;-76
2022/04/22 02:54:48;;;;;;;;;;;;;;;9.22;56.00;100221.23;124680;1099;104172;-76
2022/04/22 02:57:18;;;;;;;;;;;;;;;9.16;55.33;100207.09;124349;1099;104194;-76
2022/04/22 02:59:50;;;;;;;;;;;;;;;9.26;55.84;100231.88;124375;1099;101996;-76
2022/04/22 03:02:21;;;;;;;;;;;;;;;9.24;55.80;100233.56;124844;1099;104214;-76
2022/04/22 03:04:53;;;;;;;;;;;;;;;9.21;55.72;100238.68;124436;1099;104153;-76
2022/04/22 03:07:25;;;;;;;;;;;;;;;9.13;56.06;100222.69;124425;1102;104172;-77
2022/04/22 03:09:56;;;;;;;;;;;;;;;9.19;55.88;100235.09;124925;1099;104172;-75
2022/04/22 03:12:26;;;;;;;;;;;;;;;9.14;56.07;100241.89;124388;1099;103036;-76
2022/04/22 03:14:56;;;;;;;;;;;;;;;9.11;55.84;100244.39;124832;1099;104264;-76
2022/04/22 03:17:28;;;;;;;;;;;;;;;9.11;56.52;100241.78;124841;1099;104637;-76
2022/04/22 03:19:58;;;;;;;;;;;;;;;9.12;56.45;100236.59;124327;1099;102912;-76
2022/04/22 03:22:30;;;;;;;;;;;;;;;9.13;56.18;100234.86;124836;1099;102390;-76
2022/04/22 03:25:01;;;;;;;;;;;;;;;9.15;56.08;100244.57;124763;1099;104794;-76
2022/04/22 03:27:31;;;;;;;;;;;;;;;9.15;56.84;100238.45;124766;1099;104622;-75
2022/04/22 03:30:03;;;;;;;;;;;;;;;9.15;56.30;100246.30;124857;1099;104360;-76
2022/04/22 03:32:33;;;;;;;;;;;;;;;9.14;56.25;100241.89;124801;1099;104310;-77
2022/04/22 03:35:09;;;;;;;;;;;;;;;9.13;56.04;100243.63;124801;1099;104323;-77
2022/04/22 03:37:41;;;;;;;;;;;;;;;9.11;56.58;100234.80;124899;1099;104214;-76
2022/04/22 03:40:14;;;;;;;;;;;;;;;9.11;56.33;100247.02;124865;1099;102254;-76
2022/04/22 03:42:45;;;;;;;;;;;;;;;9.11;56.39;100247.02;124852;1099;104271;-76
2022/04/22 03:45:16;;;;;;;;;;;;;;;9.10;56.74;100242.60;124814;1098;104229;-77
2022/04/22 03:47:47;;;;;;;;;;;;;;;9.09;56.88;100246.08;124336;1099;102275;-77
2022/04/22 03:50:17;;;;;;;;;;;;;;;9.06;56.64;100244.22;124815;1099;102964;-77
2022/04/22 03:52:48;;;;;;;;;;;;;;;9.04;56.52;100240.67;124748;1099;104185;-76
2022/04/22 03:55:18;;;;;;;;;;;;;;;9.04;56.46;100247.61;124784;1099;104162;-77
2022/04/22 04:00:36;;;;;;;;;;;;;;;9.04;57.04;100248.52;124833;1099;104169;-77
2022/04/22 04:03:06;;;;;;;;;;;;;;;9.04;56.86;100251.14;124788;1098;102901;-77
2022/04/22 04:05:38;;;;;;;;;;;;;;;9.08;56.98;100250.39;124341;1099;102256;-77
2022/04/22 04:08:11;;;;;;;;;;;;;;;9.14;56.56;100249.75;124947;1099;104169;-77
2022/04/22 04:16:18;;;;;;;;;;;;;;;9.30;57.04;100253.81;124832;1098;104172;-77
2022/04/22 04:18:49;;;;;;;;;;;;;;;9.36;57.67;100254.05;124777;1098;102738;-77
2022/04/22 04:24:07;;;;;;;;;;;;;;;9.51;57.77;100256.34;124809;1099;104252;-77
2022/04/22 04:26:37;;;;;;;;;;;;;;;9.56;57.56;100261.74;124839;1099;104258;-76
2022/04/22 04:29:09;;;;;;;;;;;;;;;9.65;57.77;100262.08;124332;1099;103424;-76
2022/04/22 04:31:39;;;;;;;;;;;;;;;9.72;57.33;100261.44;124758;1099;104335;-76
2022/04/22 04:34:10;;;;;;;;;;;;;;;9.79;56.82;100258.20;124377;1102;102937;-77
2022/04/22 04:36:41;;;;;;;;;;;;;;;9.87;56.94;100266.34;124853;1099;104160;-77
2022/04/22 04:39:11;;;;;;;;;;;;;;;9.92;57.02;100264.75;124906;1099;103173;-77
2022/04/22 04:41:43;;;;;;;;;;;;;;;9.97;56.45;100272.78;124850;1099;102142;-77
2022/04/22 04:44:27;;;;;;;;;;;;;;;10.02;56.34;100271.19;124929;1099;102101;-77
2022/04/22 04:46:58;;;;;;;;;;;;;;;10.07;56.10;100273.14;124827;1099;104050;-77
2022/04/22 04:49:30;;;;;;;;;;;;;;;10.15;55.62;100283.02;124853;1099;104219;-76
2022/04/22 04:52:03;;;;;;;;;;;;;;;10.22;55.93;100267.54;124852;1099;104210;-76
2022/04/22 04:54:35;;;;;;;;;;;;;;;10.29;55.62;100268.63;124349;1099;104249;-77
2022/04/22 04:57:06;;;;;;;;;;;;;;;10.35;55.64;100274.11;124783;1099;104201;-76
2022/04/22 04:59:36;;;;;;;;;;;;;;;10.43;55.15;100279.61;124420;1099;104644;-78
2022/04/22 05:02:07;;;;;;;;;;;;;;;10.53;55.58;100278.16;125054;1099;102676;-79
2022/04/22 05:04:37;;;;;;;;;;;;;;;10.65;55.66;100280.30;124919;1099;104182;-79
2022/04/22 05:07:08;;;;;;;;;;;;;;;10.76;55.11;100279.78;125853;1099;104211;-78
2022/04/22 05:09:38;;;;;;;;;;;;;;;10.86;54.97;100282.69;125003;1099;104258;-78
2022/04/22 05:12:12;;;;;;;;;;;;;;;10.92;54.57;100280.26;124676;1099;104150;-77
2022/04/22 05:14:42;;;;;;;;;;;;;;;10.97;54.79;100282.19;125018;1099;104242;-79
2022/04/22 05:17:13;;;;;;;;;;;;;;;11.05;54.26;100282.42;124745;1099;102617;-79
2022/04/22 05:19:45;;;;;;;;;;;;;;;11.13;54.70;100287.91;124817;1099;102791;-80
2022/04/22 05:22:17;;;;;;;;;;;;;;;11.21;53.31;100293.39;125478;1098;104182;-80
2022/04/22 05:24:49;;;;;;;;;;;;;;;11.28;53.66;100285.73;125246;1099;104349;-79
2022/04/22 05:27:22;;;;;;;;;;;;;;;11.26;53.46;100276.02;125328;1099;102592;-81
2022/04/22 05:32:49;;;;;;;;;;;;;;;11.54;53.40;100287.33;125177;1099;104222;-77
2022/04/22 05:35:19;;;;;;;;;;;;;;;11.64;53.45;100290.27;124864;1099;103220;-79
2022/04/22 05:37:54;;;;;;;;;;;;;;;11.75;53.17;100282.67;124701;1099;104195;-79
2022/04/22 05:40:36;;;;;;;;;;;;;;;11.82;53.09;100287.23;124682;1099;104205;-78
2022/04/22 05:43:08;;;;;;;;;;;;;;;11.93;52.77;100291.94;124802;1099;101950;-78
2022/04/22 05:45:39;;;;;;;;;;;;;;;12.04;52.27;100299.28;125097;1099;104169;-78
2022/04/22 05:48:12;;;;;;;;;;;;;;;12.10;52.46;100298.53;124563;1099;103567;-78
2022/04/22 05:50:44;;;;;;;;;;;;;;;12.20;51.81;100297.92;124530;1102;104163;-79
2022/04/22 05:53:15;;;;;;;;;;;;;;;12.32;52.66;100291.19;125530;1099;102801;-79
2022/04/22 05:55:47;;;;;;;;;;;;;;;12.45;52.44;100297.64;124650;1102;104195;-80
2022/04/22 05:58:17;;;;;;;;;;;;;;;12.56;52.19;100297.06;124545;1100;104951;-80
2022/04/22 06:00:49;;;;;;;;;;;;;;;12.65;51.70;100291.11;124502;1099;102890;-80
2022/04/22 06:03:21;;;;;;;;;;;;;;;12.76;50.00;100300.18;125141;1099;102416;-81
2022/04/22 06:05:55;;;;;;;;;;;;;;;12.88;48.32;100296.92;124532;1102;104261;-81
2022/04/22 06:11:21;;;;;;;;;;;;;;;13.14;50.48;100307.17;124718;1099;103445;-80
2022/04/22 06:13:55;;;;;;;;;;;;;;;13.25;48.80;100296.88;124748;1099;102140;-80
2022/04/22 06:16:27;;;;;;;;;;;;;;;13.31;48.42;100297.87;124438;1102;104623;-80
2022/04/22 06:19:00;;;;;;;;;;;;;;;13.43;49.75;100296.38;124256;1102;104239;-78
2022/04/22 06:21:37;;;;;;;;;;;;;;;13.60;50.15;100295.01;124631;1102;104315;-82
2022/04/22 06:24:15;;;;;;;;;;;;;;;13.83;49.92;100295.42;124533;1102;103059;-80
2022/04/22 06:26:47;;;;;;;;;;;;;;;14.00;49.57;100300.15;124515;1102;104207;-82
2022/04/22 06:29:21;;;;;;;;;;;;;;;14.11;48.06;100313.53;124603;1102;104227;-81
2022/04/22 06:31:57;;;;;;;;;;;;;;;14.18;47.32;100328.63;124944;1102;102829;-83
2022/04/22 06:34:32;;;;;;;;;;;;;;;14.27;47.53;100319.97;125196;1102;104191;-82
2022/04/22 06:37:10;;;;;;;;;;;;;;;14.37;47.44;100319.28;125284;1102;102831;-81
2022/04/22 06:48:01;;;;;;;;;;;;;;;14.87;45.60;100313.08;125147;1099;102348;-79
2022/04/22 06:50:33;;;;;;;;;;;;;;;15.02;47.98;100312.40;124631;1099;104198;-79
2022/04/22 06:53:09;;;;;;;;;;;;;;;15.17;47.66;100317.03;124601;1099;103264;-77
2022/04/22 06:55:40;;;;;;;;;;;;;;;15.26;45.66;100322.45;125090;1099;102277;-79
2022/04/22 06:58:14;;;;;;;;;;;;;;;15.40;46.90;100320.87;125121;1099;102787;-77
2022/04/22 07:00:44;;;;;;;;;;;;;;;15.48;46.16;100320.09;124995;1099;104182;-77
2022/04/22 07:03:15;;;;;;;;;;;;;;;15.59;44.92;100315.81;125242;1099;104239;-79
2022/04/22 07:05:52;;;;;;;;;;;;;;;15.69;46.30;100308.87;125232;1099;105210;-80
2022/04/22 07:08:25;;;;;;;;;;;;;;;15.75;44.87;100307.20;125299;1099;102753;-79
2022/04/22 07:11:11;;;;;;;;;;;;;;;15.83;45.39;100311.71;125317;1099;104159;-81
2022/04/22 07:13:49;;;;;;;;;;;;;;;15.93;44.31;100305.66;125303;1099;104229;-81
2022/04/22 07:16:25;;;;;;;;;;;;;;;15.95;45.29;100286.27;124710;1099;104281;-81
2022/04/22 07:19:00;;;;;;;;;;;;;;;16.04;44.25;100282.83;125733;1099;104156;-78
2022/04/22 07:25:05;;;;;;;;;;;;;;;16.18;43.03;100272.38;125882;1099;104098;-80
2022/04/22 07:27:42;;;;;;;;;;;;;;;16.39;43.94;100276.95;124805;1099;102807;-80
2022/04/22 07:30:29;;;;;;;;;;;;;;;16.53;42.67;100277.98;124916;1099;104168;-79
2022/04/22 07:33:02;;;;;;;;;;;;;;;16.69;42.73;100276.33;125106;1099;104185;-81
2022/04/22 07:35:43;;;;;;;;;;;;;;;16.80;41.53;100272.88;125226;1102;102296;-81
2022/04/22 07:38:20;;;;;;;;;;;;;;;16.88;40.82;100266.77;125187;1099;102289;-80
2022/04/22 07:40:54;;;;;;;;;;;;;;;17.04;43.08;100273.03;125285;1099;102524;-79
2022/04/22 07:46:59;;;;;;;;;;;;;;;;;;;;;
2022/04/22 07:49:40;;;;;;;;;;;;;;;17.36;39.40;100271.44;125361;1099;104153;-81
2022/04/22 07:52:11;;;;;;;;;;;;;;;17.43;40.80;100266.14;124794;1098;104162;-82
2022/04/22 07:54:45;;;;;;;;;;;;;;;17.55;40.49;100267.09;125917;1099;104188;-80
2022/04/22 07:57:20;;;;;;;;;;;;;;;17.67;40.65;100274.18;125157;1099;102168;-81
2022/04/22 07:59:57;;;;;;;;;;;;;;;17.74;40.65;100275.98;125880;1099;102398;-81
2022/04/22 08:02:41;;;;;;;;;;;;;;;17.84;40.25;100264.52;125883;1099;104172;-82
2022/04/22 08:05:16;;;;;;;;;;;;;;;17.91;37.75;100266.32;125550;1099;104255;-83
2022/04/22 08:07:56;;;;;;;;;;;;;;;18.02;38.53;100263.69;126230;1099;102240;-83
2022/04/22 08:10:41;;;;;;;;;;;;;;;18.12;36.09;100259.27;126045;1099;102001;-83
2022/04/22 08:13:14;;;;;;;;;;;;;;;18.21;37.10;100253.95;125852;1099;102617;-85
2022/04/22 08:16:17;;;;;;;;;;;;;;;18.29;35.73;100251.31;125796;1099;102275;-82
2022/04/22 08:19:22;;;;;;;;;;;;;;;18.33;34.79;100253.09;125805;1099;102384;-80
2022/04/22 08:21:57;;;;;;;;;;;;;;;18.43;37.38;100248.66;125969;1098;104261;-82
2022/04/22 08:24:42;;;;;;;;;;;;;;;18.50;37.05;100245.12;125720;1099;102461;-82
2022/04/22 08:27:18;;;;;;;;;;;;;;;18.57;35.32;100238.89;125718;1099;102872;-83
2022/04/22 08:30:01;;;;;;;;;;;;;;;18.65;36.50;100239.79;125854;1098;102642;-81
2022/04/22 08:32:49;;;;;;;;;;;;;;;;;;;;;
2022/04/22 08:35:23;;;;;;;;;;;;;;;18.77;35.58;100235.33;125960;1099;102303;-82
2022/04/22 08:38:04;;;;;;;;;;;;;;;18.74;31.90;100233.55;125808;1097;104153;-81
2022/04/22 08:40:36;;;;;;;;;;;;;;;18.78;33.92;100234.45;125743;1099;102762;-81
2022/04/22 08:43:08;;;;;;;;;;;;;;;18.88;33.63;100235.34;125874;1099;104082;-82
2022/04/22 08:45:40;;;;;;;;;;;;;;;18.83;31.58;100236.19;125938;1099;102768;-81
2022/04/22 08:51:22;;;;;;;;;;;;;;;;;;;;;
2022/04/22 08:53:58;;;;;;;;;;;;;;;18.89;32.18;100235.34;125988;1098;104169;-81
2022/04/22 08:56:47;;;;;;;;;;;;;;;18.85;31.89;100237.13;125719;1099;104223;-83
2022/04/22 08:59:19;;;;;;;;;;;;;;;18.95;33.61;100248.61;125973;1099;104695;-80
2022/04/22 09:01:57;;;;;;;;;;;;;;;18.98;31.96;100235.31;125888;1099;104177;-80
2022/04/22 09:04:51;;;;;;;;;;;;;;;19.03;32.60;100236.17;125371;1102;102258;-84
2022/04/22 09:07:26;;;;;;;;;;;;;;;19.16;32.99;100230.81;125209;1102;104160;-83
2022/04/22 09:10:13;;;;;;;;;;;;;;;19.21;31.46;100239.65;125230;1102;104172;-82
2022/04/22 09:12:53;;;;;;;;;;;;;;;19.23;30.47;100243.21;125171;1102;104293;-81
2022/04/22 09:15:31;;;;;;;;;;;;;;;19.30;32.56;100239.61;125303;1102;104373;-83
2022/04/22 09:18:09;;;;;;;;;;;;;;;19.33;31.34;100239.59;125396;1102;104225;-83
2022/04/22 09:20:50;;;;;;;;;;;;;;;19.38;29.64;100239.58;125229;1102;104251;-81
2022/04/22 09:23:24;;;;;;;;;;;;;;;19.36;30.26;100239.59;124736;1101;104517;-81
2022/04/22 09:25:56;;;;;;;;;;;;;;;19.46;31.35;100239.55;125269;1100;102646;-80
2022/04/22 09:28:27;;;;;;;;;;;;;;;19.40;30.63;100244.02;125243;1102;104404;-81
2022/04/22 09:31:05;;;;;;;;;;;;;;;19.38;29.50;100247.56;125202;1102;104275;-81
2022/04/22 09:33:44;;;;;;;;;;;;;;;19.35;29.91;100245.82;125287;1102;103318;-84
2022/04/22 09:45:07;;;;;;;;;;;;;;;19.55;30.50;100240.37;125900;1099;104162;-80
2022/04/22 09:47:38;;;;;;;;;;;;;;;19.65;30.17;100238.57;125867;1099;102541;-82
2022/04/22 09:50:14;;;;;;;;;;;;;;;19.78;30.12;100243.86;125971;1099;104158;-81
2022/04/22 09:52:49;;;;;;;;;;;;;;;19.83;30.30;100252.69;125447;1098;104236;-82
2022/04/22 09:55:27;;;;;;;;;;;;;;;19.88;31.26;100243.79;125615;1099;102251;-82
2022/04/22 09:58:11;;;;;;;;;;;;;;;19.92;30.80;100244.64;126050;1099;104226;-82
2022/04/22 10:00:41;;;;;;;;;;;;;;;19.97;31.43;100247.27;125962;1099;103465;-81
2022/04/22 10:03:17;;;;;;;;;;;;;;;19.94;29.09;100250.83;126061;1098;102448;-79
2022/04/22 10:06:01;;;;;;;;;;;;;;;19.93;30.20;100249.09;125901;1099;104271;-80
2022/04/22 10:08:36;;;;;;;;;;;;;;;19.89;31.08;100242.88;125395;1099;102462;-80
2022/04/22 10:11:07;;;;;;;;;;;;;;;19.79;29.88;100253.59;125993;1099;104360;-79
2022/04/22 10:13:42;;;;;;;;;;;;;;;19.75;30.43;100261.56;125019;1099;102209;-80
2022/04/22 10:16:12;;;;;;;;;;;;;;;19.80;31.83;100252.70;125265;1099;104070;-80
2022/04/22 10:18:46;;;;;;;;;;;;;;;19.78;31.08;100254.50;125249;1099;102944;-81
2022/04/22 10:21:21;;;;;;;;;;;;;;;19.83;30.91;100258.89;125246;1099;102752;-81
2022/04/22 10:23:54;;;;;;;;;;;;;;;19.86;30.22;100250.01;126047;1098;104287;-82
2022/04/22 10:26:25;;;;;;;;;;;;;;;19.90;30.09;100254.43;125061;1099;104261;-81
2022/04/22 10:28:56;;;;;;;;;;;;;;;20.02;29.85;100256.98;125121;1098;104217;-79
2022/04/22 10:31:28;;;;;;;;;;;;;;;20.03;30.41;100256.09;125219;1099;102249;-79
2022/04/22 10:34:06;;;;;;;;;;;;;;;19.97;31.24;100249.94;125180;1098;104281;-79
2022/04/22 10:36:40;;;;;;;;;;;;;;;19.96;31.45;100248.16;125066;1099;102772;-79
2022/04/22 10:39:32;;;;;;;;;;;;;;;19.97;31.36;100253.48;125480;1099;102631;-80
2022/04/22 10:42:14;;;;;;;;;;;;;;;19.96;31.02;100250.82;125915;1099;102213;-79
2022/04/22 10:47:55;;;;;;;;;;;;;;;20.00;31.02;100250.79;125160;1099;104261;-79
2022/04/22 10:50:26;;;;;;;;;;;;;;;20.12;31.90;100233.84;125121;1099;103216;-80
2022/04/22 10:53:04;;;;;;;;;;;;;;;20.09;31.36;100240.08;125866;1099;104261;-80
2022/04/22 10:55:36;;;;;;;;;;;;;;;20.03;31.18;100240.12;125887;1098;102839;-79
2022/04/22 10:58:24;;;;;;;;;;;;;;;20.03;31.33;100241.91;125831;1099;104166;-79
2022/04/22 11:01:04;;;;;;;;;;;;;;;20.05;31.54;100235.66;125123;1099;104156;-80
2022/04/22 11:03:40;;;;;;;;;;;;;;;20.06;31.19;100245.42;124985;1099;102784;-79
2022/04/22 11:06:13;;;;;;;;;;;;;;;20.11;31.86;100240.06;125750;1098;102503;-80
2022/04/22 11:08:59;;;;;;;;;;;;;;;19.98;32.12;100225.96;125203;1099;104182;-78
2022/04/22 11:11:39;;;;;;;;;;;;;;;19.88;32.28;100240.22;125038;1099;109842;-78
2022/04/22 11:14:20;;;;;;;;;;;;;;;19.84;32.46;100230.51;125693;1099;104194;-77
2022/04/22 11:16:52;;;;;;;;;;;;;;;19.83;32.95;100228.73;124895;1099;104201;-78
2022/04/22 11:19:33;;;;;;;;;;;;;;;19.84;33.26;100239.37;125008;1099;102356;-79
2022/04/22 11:22:07;;;;;;;;;;;;;;;19.73;33.32;100236.73;125847;1099;104214;-79
2022/04/22 11:24:41;;;;;;;;;;;;;;;19.69;33.00;100234.97;125774;1099;104217;-80
2022/04/22 11:27:12;;;;;;;;;;;;;;;19.65;33.18;100232.34;125804;1099;102811;-80
2022/04/22 11:29:47;;;;;;;;;;;;;;;19.53;32.28;100226.20;125844;1099;104163;-80
2022/04/22 11:32:22;;;;;;;;;;;;;;;19.58;32.97;100232.38;125808;1099;102410;-80
2022/04/22 11:35:09;;;;;;;;;;;;;;;19.53;33.59;100223.54;126067;1099;102720;-78
2022/04/22 11:37:44;;;;;;;;;;;;;;;19.47;33.19;100217.38;125063;1099;104178;-77
2022/04/22 11:43:09;;;;;;;;;;;;;;;19.54;33.02;100213.77;125844;1099;102766;-80
2022/04/22 11:45:44;;;;;;;;;;;;;;;19.58;32.86;100202.23;125056;1099;104210;-80
2022/04/22 11:48:15;;;;;;;;;;;;;;;19.63;32.83;100205.73;124974;1098;104195;-79
2022/04/22 11:50:46;;;;;;;;;;;;;;;19.52;33.58;100205.80;125042;1098;102388;-79
2022/04/22 11:53:18;;;;;;;;;;;;;;;19.39;33.86;100209.44;125168;1099;104204;-78
2022/04/22 11:55:51;;;;;;;;;;;;;;;19.29;33.35;100208.61;125165;1099;102361;-77
2022/04/22 11:58:24;;;;;;;;;;;;;;;19.17;33.82;100200.67;125007;1098;102712;-79
2022/04/22 12:06:44;;;;;;;;;;;;;;;19.12;34.47;100189.16;125212;1099;104217;-80
2022/04/22 12:09:14;;;;;;;;;;;;;;;19.08;34.38;100180.31;125204;1099;102623;-79
2022/04/22 12:11:44;;;;;;;;;;;;;;;19.03;34.56;100175.02;125027;1099;104275;-80
2022/04/22 12:14:23;;;;;;;;;;;;;;;18.95;34.28;100170.64;125013;1098;104176;-78
2022/04/22 12:16:57;;;;;;;;;;;;;;;18.89;34.45;100171.53;124957;1099;104222;-80
2022/04/22 12:19:28;;;;;;;;;;;;;;;18.75;34.09;100152.94;125845;1099;102245;-80
2022/04/22 12:21:59;;;;;;;;;;;;;;;18.71;34.52;100155.61;124947;1099;104198;-78
2022/04/22 12:24:30;;;;;;;;;;;;;;;18.74;34.97;100168.89;124914;1098;104258;-80
2022/04/22 12:27:01;;;;;;;;;;;;;;;18.72;34.36;100163.58;125118;1097;104149;-78
2022/04/22 12:29:35;;;;;;;;;;;;;;;18.68;34.29;100159.15;125034;1099;104245;-80
2022/04/22 12:32:18;;;;;;;;;;;;;;;18.57;34.62;100164.49;125175;1099;101798;-80
2022/04/22 12:34:48;;;;;;;;;;;;;;;18.56;34.37;100154.77;125037;1098;104282;-79
2022/04/22 12:37:24;;;;;;;;;;;;;;;18.56;34.66;100144.15;125709;1099;102439;-81
2022/04/22 12:40:08;;;;;;;;;;;;;;;18.52;34.68;100146.81;125817;1099;104300;-81
2022/04/22 12:54:41;;;;;;;;;;;;;;;18.61;34.91;100129.06;125039;1099;104211;-81
2022/04/22 12:57:20;;;;;;;;;;;;;;;18.68;34.65;100132.58;125124;1099;104192;-80
2022/04/22 13:00:00;;;;;;;;;;;;;;;18.77;35.05;100129.02;125131;1099;102232;-80
2022/04/22 13:02:37;;;;;;;;;;;;;;;18.87;35.43;100130.79;125183;1099;102940;-80
2022/04/22 13:05:16;;;;;;;;;;;;;;;18.97;35.07;100134.28;125004;1098;104232;-82
2022/04/22 13:07:53;;;;;;;;;;;;;;;19.02;34.24;100136.01;125812;1099;102207;-81
2022/04/22 13:10:24;;;;;;;;;;;;;;;19.18;34.37;100133.27;125819;1099;104313;-79
2022/04/22 13:13:12;;;;;;;;;;;;;;;19.32;34.65;100131.45;125005;1099;104290;-80
2022/04/22 13:15:53;;;;;;;;;;;;;;;19.30;33.23;100121.70;125141;1099;104153;-80
2022/04/22 13:18:31;;;;;;;;;;;;;;;19.26;34.21;100112.86;125317;1099;102765;-81
2022/04/22 13:21:04;;;;;;;;;;;;;;;19.22;34.65;100108.44;125185;1099;104198;-80
2022/04/22 13:23:36;;;;;;;;;;;;;;;19.11;34.98;100116.48;124543;1102;104440;-80
2022/04/22 13:26:10;;;;;;;;;;;;;;;18.97;35.85;100110.36;124724;1099;102448;-80
2022/04/22 13:28:41;;;;;;;;;;;;;;;18.86;35.20;100097.11;124392;1102;104153;-80
2022/04/22 13:31:12;;;;;;;;;;;;;;;18.68;33.55;100098.03;124432;1099;102504;-81
2022/04/22 13:33:45;;;;;;;;;;;;;;;18.65;34.31;100104.26;125152;1099;104165;-80
2022/04/22 13:36:15;;;;;;;;;;;;;;;18.56;34.60;100098.98;124535;1102;102223;-79
2022/04/22 13:38:48;;;;;;;;;;;;;;;18.50;35.32;100089.24;124598;1099;104255;-80
2022/04/22 13:41:19;;;;;;;;;;;;;;;18.48;35.55;100096.34;124435;1099;104230;-80
2022/04/22 13:43:49;;;;;;;;;;;;;;;18.41;36.10;100099.89;124430;1102;104281;-79
2022/04/22 13:54:42;;;;;;;;;;;;;;;18.32;36.56;100076.02;124464;1099;104229;-78
2022/04/22 13:57:14;;;;;;;;;;;;;;;18.43;36.44;100087.52;124507;1099;104083;-78
2022/04/22 13:59:45;;;;;;;;;;;;;;;18.52;36.39;100091.02;124716;1099;104163;-81
2022/04/22 14:02:16;;;;;;;;;;;;;;;18.52;36.34;100096.34;125097;1099;104220;-79
2022/04/22 14:04:50;;;;;;;;;;;;;;;18.57;36.41;100098.06;124985;1099;102320;-76
2022/04/22 14:07:20;;;;;;;;;;;;;;;18.59;36.11;100098.06;124953;1098;104266;-78
2022/04/22 14:09:50;;;;;;;;;;;;;;;18.57;36.12;100098.06;124975;1099;104256;-79
2022/04/22 14:12:21;;;;;;;;;;;;;;;18.57;36.05;100092.75;125046;1099;104153;-82
2022/04/22 14:14:52;;;;;;;;;;;;;;;18.61;35.78;100105.15;124932;1099;104259;-81
2022/04/22 14:17:22;;;;;;;;;;;;;;;18.61;36.14;100091.86;125004;1099;102274;-81
2022/04/22 14:19:53;;;;;;;;;;;;;;;18.67;36.05;100088.31;125021;1099;103534;-79
2022/04/22 14:22:26;;;;;;;;;;;;;;;18.66;35.51;100084.75;125022;1099;104220;-81
2022/04/22 14:24:56;;;;;;;;;;;;;;;18.77;35.85;100081.17;125049;1099;104247;-79